createdAt,value
2023-01-19T00:00:45.978Z,1.35
2023-01-19T00:03:15.950Z,1.36
2023-01-19T00:05:43.710Z,1.33
2023-01-19T00:08:16.681Z,1.31
2023-01-19T00:10:44.318Z,1.36
2023-01-19T00:13:11.099Z,1.36
2023-01-19T00:15:37.572Z,1.38
2023-01-19T00:18:04.130Z,1.33
2023-01-19T00:20:35.399Z,1.36
2023-01-19T00:23:02.682Z,1.29
2023-01-19T00:25:29.603Z,1.27
2023-01-19T00:27:57.141Z,1.31
2023-01-19T00:30:24.172Z,1.27
2023-01-19T00:32:50.557Z,1.31
2023-01-19T00:35:17.032Z,1.29
2023-01-19T00:37:46.045Z,1.32
2023-01-19T00:40:13.918Z,1.32
2023-01-19T00:42:40.398Z,1.30
2023-01-19T00:45:15.222Z,1.33
2023-01-19T00:47:41.625Z,1.32
2023-01-19T00:50:11.715Z,1.31
2023-01-19T00:52:38.761Z,1.29
2023-01-19T00:55:05.709Z,1.28
2023-01-19T00:57:32.154Z,1.29
2023-01-19T00:59:58.805Z,1.29
2023-01-19T01:02:25.435Z,1.30
2023-01-19T01:04:56.630Z,1.28
2023-01-19T01:07:23.562Z,1.26
2023-01-19T01:09:50.364Z,1.27
2023-01-19T01:12:17.031Z,1.30
2023-01-19T01:14:43.422Z,1.24
2023-01-19T01:17:11.591Z,1.18
2023-01-19T01:19:38.461Z,1.13
2023-01-19T01:22:05.217Z,1.16
2023-01-19T01:24:31.989Z,1.12
2023-01-19T01:26:58.436Z,1.13
2023-01-19T01:29:24.825Z,1.13
2023-01-19T01:31:51.285Z,1.09
2023-01-19T01:34:17.821Z,1.12
2023-01-19T01:36:44.461Z,1.13
2023-01-19T01:39:10.844Z,1.09
2023-01-19T01:41:37.227Z,1.09
2023-01-19T01:44:08.159Z,1.11
2023-01-19T01:46:34.591Z,1.09
2023-01-19T01:49:04.587Z,1.07
2023-01-19T01:51:48.214Z,1.10
2023-01-19T01:54:17.938Z,1.15
2023-01-19T01:56:46.357Z,1.12
2023-01-19T01:59:17.961Z,1.08
2023-01-19T02:02:03.166Z,1.11
2023-01-19T02:04:31.268Z,1.13
2023-01-19T02:07:16.472Z,1.18
2023-01-19T02:10:01.659Z,1.23
2023-01-19T02:12:46.677Z,1.19
2023-01-19T02:15:17.502Z,1.22
2023-01-19T02:17:44.133Z,1.22
2023-01-19T02:20:11.054Z,1.23
2023-01-19T02:22:42.293Z,1.21
2023-01-19T02:25:08.900Z,1.21
2023-01-19T02:27:36.967Z,1.21
2023-01-19T02:30:03.909Z,1.17
2023-01-19T02:32:30.336Z,1.12
2023-01-19T02:34:57.196Z,1.19
2023-01-19T02:37:24.335Z,1.20
2023-01-19T02:39:52.640Z,1.20
2023-01-19T02:42:22.931Z,1.12
2023-01-19T02:44:50.727Z,1.14
2023-01-19T02:47:17.116Z,1.19
2023-01-19T02:49:43.525Z,1.13
2023-01-19T02:52:17.523Z,1.06
2023-01-19T02:54:47.021Z,1.06
2023-01-19T02:57:13.801Z,1.06
2023-01-19T02:59:52.478Z,1.00
2023-01-19T03:02:25.029Z,1.02
2023-01-19T03:05:06.456Z,1.10
2023-01-19T03:07:54.412Z,1.08
2023-01-19T03:10:26.121Z,1.10
2023-01-19T03:12:52.510Z,1.10
2023-01-19T03:15:22.194Z,1.11
2023-01-19T03:17:49.349Z,1.07
2023-01-19T03:20:18.836Z,1.10
2023-01-19T03:22:48.494Z,1.10
2023-01-19T03:25:15.290Z,1.10
2023-01-19T03:27:42.372Z,1.10
2023-01-19T03:30:10.947Z,1.12
2023-01-19T03:32:41.007Z,1.10
2023-01-19T03:35:10.054Z,1.09
2023-01-19T03:37:42.592Z,1.13
2023-01-19T03:40:11.491Z,1.19
2023-01-19T03:42:38.961Z,1.17
2023-01-19T03:45:05.788Z,1.16
2023-01-19T03:47:32.313Z,1.20
2023-01-19T03:50:02.082Z,1.20
2023-01-19T03:52:30.153Z,1.20
2023-01-19T03:54:56.647Z,1.20
2023-01-19T03:57:23.095Z,1.25
2023-01-19T03:59:49.512Z,1.27
2023-01-19T04:02:15.934Z,1.28
2023-01-19T04:04:42.521Z,1.32
2023-01-19T04:07:09.831Z,1.29
2023-01-19T04:09:36.296Z,1.31
2023-01-19T04:12:03.743Z,1.31
2023-01-19T04:14:30.173Z,1.30
2023-01-19T04:16:56.564Z,1.32
2023-01-19T04:19:23.686Z,1.34
2023-01-19T04:21:50.765Z,1.40
2023-01-19T04:24:17.904Z,1.41
2023-01-19T04:26:44.503Z,1.38
2023-01-19T04:29:10.896Z,1.40
2023-01-19T04:31:37.386Z,1.39
2023-01-19T04:34:04.025Z,1.44
2023-01-19T04:36:31.267Z,1.44
2023-01-19T04:38:57.652Z,1.45
2023-01-19T04:41:24.003Z,1.46
2023-01-19T04:43:50.459Z,1.46
2023-01-19T04:46:16.949Z,1.45
2023-01-19T04:48:43.409Z,1.44
2023-01-19T04:51:09.963Z,1.47
2023-01-19T04:53:36.461Z,1.50
2023-01-19T04:56:02.919Z,1.50
2023-01-19T04:58:29.380Z,1.51
2023-01-19T05:00:55.801Z,1.53
2023-01-19T05:03:22.256Z,1.52
2023-01-19T05:05:48.697Z,1.55
2023-01-19T05:08:15.219Z,1.60
2023-01-19T05:10:41.596Z,1.58
2023-01-19T05:13:08.042Z,1.57
2023-01-19T05:15:34.456Z,1.60
2023-01-19T05:18:00.904Z,1.59
2023-01-19T05:20:27.362Z,1.61
2023-01-19T05:22:53.802Z,1.67
2023-01-19T05:25:20.243Z,1.65
2023-01-19T05:27:46.753Z,1.60
2023-01-19T05:30:16.527Z,1.60
2023-01-19T05:32:42.976Z,1.63
2023-01-19T05:35:09.728Z,1.64
2023-01-19T05:37:36.347Z,1.61
2023-01-19T05:40:02.991Z,1.66
2023-01-19T05:42:31.942Z,1.65
2023-01-19T05:44:59.495Z,1.65
2023-01-19T05:47:25.927Z,1.67
2023-01-19T05:49:52.318Z,1.67
2023-01-19T05:52:18.722Z,1.70
2023-01-19T05:54:45.150Z,1.69
2023-01-19T05:57:11.775Z,1.68
2023-01-19T05:59:38.468Z,1.71
2023-01-19T06:02:04.961Z,1.70
2023-01-19T06:04:31.442Z,1.71
2023-01-19T06:06:57.908Z,1.69
2023-01-19T06:09:24.312Z,1.72
2023-01-19T06:11:50.917Z,1.68
2023-01-19T06:14:17.318Z,1.69
2023-01-19T06:16:43.943Z,1.71
2023-01-19T06:19:10.630Z,1.68
2023-01-19T06:21:36.999Z,1.70
2023-01-19T06:24:03.534Z,1.71
2023-01-19T06:26:29.930Z,1.74
2023-01-19T06:28:56.387Z,1.73
2023-01-19T06:31:22.953Z,1.74
2023-01-19T06:33:50.048Z,1.71
2023-01-19T06:36:16.455Z,1.71
2023-01-19T06:38:42.863Z,1.72
2023-01-19T06:41:09.234Z,1.74
2023-01-19T06:43:35.609Z,1.74
2023-01-19T06:46:02.279Z,1.72
2023-01-19T06:48:28.779Z,1.74
2023-01-19T06:50:56.608Z,1.73
2023-01-19T06:53:24.290Z,1.75
2023-01-19T06:55:50.702Z,1.79
2023-01-19T06:58:17.344Z,1.83
2023-01-19T07:00:43.779Z,1.77
2023-01-19T07:03:18.074Z,1.77
2023-01-19T07:05:44.543Z,1.79
2023-01-19T07:08:10.906Z,1.75
2023-01-19T07:11:23.174Z,1.80
2023-01-19T07:13:23.668Z,1.80
2023-01-19T07:15:50.026Z,1.82
2023-01-19T07:18:16.406Z,1.79
2023-01-19T07:20:44.310Z,1.78
2023-01-19T07:23:10.735Z,1.80
2023-01-19T07:25:38.207Z,1.78
2023-01-19T07:28:04.599Z,1.82
2023-01-19T07:30:31.275Z,1.81
2023-01-19T07:32:58.758Z,1.80
2023-01-19T07:35:25.848Z,1.81
2023-01-19T07:37:52.464Z,1.81
2023-01-19T07:40:18.984Z,1.72
2023-01-19T07:42:49.187Z,1.72
2023-01-19T07:45:20.278Z,1.73
2023-01-19T07:47:48.769Z,1.70
2023-01-19T07:50:16.118Z,1.74
2023-01-19T07:52:42.482Z,1.78
2023-01-19T07:55:09.455Z,1.80
2023-01-19T07:57:35.836Z,1.78
2023-01-19T08:00:03.286Z,1.79
2023-01-19T08:02:38.930Z,1.81
2023-01-19T08:05:05.628Z,1.82
2023-01-19T08:07:32.913Z,1.82
2023-01-19T08:09:59.348Z,1.84
2023-01-19T08:12:25.741Z,1.86
2023-01-19T08:14:52.143Z,1.88
2023-01-19T08:17:19.357Z,1.88
2023-01-19T08:19:45.761Z,1.87
2023-01-19T08:22:12.198Z,1.88
2023-01-19T08:24:38.601Z,1.81
2023-01-19T08:27:05.007Z,1.73
2023-01-19T08:29:31.891Z,1.75
2023-01-19T08:32:00.164Z,1.77
2023-01-19T08:34:27.132Z,1.83
2023-01-19T08:36:53.981Z,1.84
2023-01-19T08:39:20.459Z,1.85
2023-01-19T08:41:46.860Z,1.82
2023-01-19T08:44:13.263Z,1.88
2023-01-19T08:46:39.654Z,1.91
2023-01-19T08:49:06.190Z,1.90
2023-01-19T08:51:32.655Z,1.93
2023-01-19T08:53:59.043Z,1.94
2023-01-19T08:56:25.572Z,1.95
2023-01-19T08:59:07.679Z,1.98
2023-01-19T09:01:34.541Z,1.95
2023-01-19T09:04:00.999Z,1.95
2023-01-19T09:06:28.381Z,1.97
2023-01-19T09:08:54.781Z,1.99
2023-01-19T09:11:21.280Z,1.99
2023-01-19T09:13:47.689Z,2.02
2023-01-19T09:16:15.788Z,2.03
2023-01-19T09:18:42.332Z,2.05
2023-01-19T09:21:09.024Z,2.04
2023-01-19T09:23:35.439Z,2.05
2023-01-19T09:26:03.283Z,2.05
2023-01-19T09:28:30.032Z,2.05
2023-01-19T09:30:56.801Z,2.06
2023-01-19T09:33:24.571Z,2.08
2023-01-19T09:35:51.853Z,2.09
2023-01-19T09:38:19.144Z,2.10
2023-01-19T09:40:50.009Z,2.12
2023-01-19T09:43:28.752Z,2.13
2023-01-19T09:45:57.470Z,2.13
2023-01-19T09:48:26.899Z,2.14
2023-01-19T09:58:41.328Z,2.19
2023-01-19T10:01:35.176Z,2.20
2023-01-19T10:04:16.708Z,2.21
2023-01-19T10:06:43.283Z,2.24
2023-01-19T10:09:22.901Z,2.24
2023-01-19T10:12:10.620Z,2.25
2023-01-19T10:14:42.907Z,2.25
2023-01-19T10:17:20.316Z,2.26
2023-01-19T10:19:51.068Z,2.25
2023-01-19T10:22:22.188Z,2.30
2023-01-19T10:24:50.304Z,2.32
2023-01-19T10:27:18.452Z,2.53
2023-01-19T10:29:45.341Z,2.76
2023-01-19T10:32:17.371Z,2.92
2023-01-19T10:34:44.059Z,3.07
2023-01-19T10:37:21.402Z,3.20
2023-01-19T10:39:53.091Z,3.37
2023-01-19T10:42:19.659Z,3.39
2023-01-19T10:44:46.297Z,3.55
2023-01-19T10:47:20.216Z,3.63
2023-01-19T10:49:47.968Z,3.68
2023-01-19T10:52:25.363Z,3.71
2023-01-19T10:54:51.935Z,3.73
2023-01-19T10:57:32.021Z,3.72
2023-01-19T10:59:58.890Z,3.78
2023-01-19T11:02:27.618Z,3.79
2023-01-19T11:04:55.657Z,3.80
2023-01-19T11:07:23.678Z,3.88
2023-01-19T11:10:09.908Z,3.91
2023-01-19T11:12:40.002Z,3.93
2023-01-19T11:15:14.086Z,3.97
2023-01-19T11:17:41.468Z,3.98
2023-01-19T11:20:18.414Z,3.95
2023-01-19T11:22:44.876Z,3.99
2023-01-19T11:25:20.044Z,4.05
2023-01-19T11:27:50.129Z,4.08
2023-01-19T11:30:22.234Z,4.06
2023-01-19T11:32:49.282Z,4.10
2023-01-19T11:35:38.491Z,4.10
2023-01-19T11:38:07.882Z,4.12
2023-01-19T11:40:35.653Z,4.14
2023-01-19T11:43:02.438Z,4.14
2023-01-19T11:45:29.285Z,4.17
2023-01-19T11:47:56.989Z,4.19
2023-01-19T11:50:24.593Z,4.19
2023-01-19T11:52:57.685Z,4.20
2023-01-19T11:55:27.220Z,4.24
2023-01-19T11:57:54.753Z,4.25
2023-01-19T12:00:47.648Z,4.23
2023-01-19T12:03:17.173Z,4.25
2023-01-19T12:05:48.302Z,4.29
2023-01-19T12:08:18.364Z,4.24
2023-01-19T12:10:46.690Z,4.28
2023-01-19T12:13:18.690Z,4.32
2023-01-19T12:15:45.819Z,4.28
2023-01-19T12:18:21.273Z,4.26
2023-01-19T12:20:50.596Z,4.26
2023-01-19T12:23:29.190Z,4.29
2023-01-19T12:26:13.787Z,4.29
2023-01-19T12:28:42.219Z,4.31
2023-01-19T12:31:09.275Z,4.32
2023-01-19T12:33:37.724Z,4.38
2023-01-19T12:36:30.204Z,4.38
2023-01-19T12:39:01.692Z,4.40
2023-01-19T12:41:30.063Z,4.42
2023-01-19T12:44:11.916Z,4.39
2023-01-19T12:46:38.476Z,4.43
2023-01-19T12:49:10.902Z,4.43
2023-01-19T12:51:37.579Z,4.43
2023-01-19T12:54:06.860Z,4.45
2023-01-19T12:56:34.950Z,4.38
2023-01-19T12:59:01.555Z,4.42
2023-01-19T13:01:28.138Z,4.41
2023-01-19T13:03:58.263Z,4.45
2023-01-19T13:06:43.496Z,4.46
2023-01-19T13:09:29.367Z,4.41
2023-01-19T13:12:13.943Z,4.49
2023-01-19T13:14:43.878Z,4.48
2023-01-19T13:17:16.506Z,4.42
2023-01-19T13:19:45.438Z,4.45
2023-01-19T13:22:30.563Z,4.44
2023-01-19T13:25:13.281Z,4.45
2023-01-19T13:27:40.678Z,4.44
2023-01-19T13:30:17.789Z,4.38
2023-01-19T13:32:44.389Z,4.42
2023-01-19T13:35:17.135Z,4.46
2023-01-19T13:37:44.347Z,4.38
2023-01-19T13:40:24.820Z,4.42
2023-01-19T13:42:52.871Z,4.40
2023-01-19T13:45:33.702Z,4.44
2023-01-19T13:48:02.581Z,4.43
2023-01-19T13:50:30.203Z,4.46
2023-01-19T13:52:58.758Z,4.47
2023-01-19T13:55:29.881Z,4.47
2023-01-19T13:57:56.672Z,4.45
2023-01-19T14:00:24.550Z,4.49
2023-01-19T14:02:51.049Z,4.48
2023-01-19T14:05:25.285Z,4.45
2023-01-19T14:08:01.197Z,4.47
2023-01-19T14:10:27.941Z,4.44
2023-01-19T14:13:04.349Z,4.46
2023-01-19T14:15:33.399Z,4.41
2023-01-19T14:18:09.304Z,4.43
2023-01-19T14:20:38.999Z,4.44
2023-01-19T14:23:06.800Z,4.45
2023-01-19T14:25:35.405Z,4.47
2023-01-19T14:28:23.116Z,4.45
2023-01-19T14:30:54.009Z,4.42
2023-01-19T14:33:39.907Z,4.45
2023-01-19T14:36:10.511Z,4.42
2023-01-19T14:38:37.083Z,4.42
2023-01-19T14:41:03.562Z,4.42
2023-01-19T14:43:30.021Z,4.23
2023-01-19T14:45:56.406Z,4.18
2023-01-19T14:48:22.798Z,4.16
2023-01-19T14:51:02.748Z,4.20
2023-01-19T14:53:34.446Z,4.10
2023-01-19T14:56:02.811Z,4.15
2023-01-19T14:58:31.213Z,4.17
2023-01-19T15:00:58.069Z,4.19
2023-01-19T15:03:38.561Z,4.19
2023-01-19T15:06:16.562Z,4.26
2023-01-19T15:08:43.885Z,4.49
2023-01-19T15:11:23.055Z,4.65
2023-01-19T15:13:49.899Z,4.81
2023-01-19T15:16:16.599Z,4.89
2023-01-19T15:18:43.115Z,4.99
2023-01-19T15:21:19.446Z,5.03
2023-01-19T15:23:47.433Z,5.18
2023-01-19T15:26:16.590Z,5.09
2023-01-19T15:28:43.278Z,5.26
2023-01-19T15:31:15.237Z,5.26
2023-01-19T15:33:41.733Z,5.40
2023-01-19T15:36:18.723Z,5.30
2023-01-19T15:38:45.632Z,5.32
2023-01-19T15:41:18.756Z,5.31
2023-01-19T15:43:45.211Z,5.35
2023-01-19T15:46:13.345Z,5.34
2023-01-19T15:48:39.781Z,5.39
2023-01-19T15:51:06.194Z,5.36
2023-01-19T15:53:34.270Z,5.36
2023-01-19T15:56:00.703Z,5.38
2023-01-19T15:58:27.307Z,5.33
2023-01-19T16:00:55.287Z,5.37
2023-01-19T16:03:21.887Z,5.31
2023-01-19T16:05:48.711Z,5.34
2023-01-19T16:08:15.640Z,5.36
2023-01-19T16:10:42.336Z,5.34
2023-01-19T16:13:09.492Z,5.29
2023-01-19T16:15:36.387Z,5.32
2023-01-19T16:18:03.076Z,5.23
2023-01-19T16:20:29.458Z,5.27
2023-01-19T16:23:00.688Z,5.27
2023-01-19T16:25:32.625Z,5.31
2023-01-19T16:27:58.968Z,5.31
2023-01-19T16:30:25.357Z,5.21
2023-01-19T16:32:52.973Z,5.20
2023-01-19T16:35:19.478Z,5.20
2023-01-19T16:37:49.687Z,5.12
2023-01-19T16:40:16.230Z,5.10
2023-01-19T16:42:42.632Z,5.10
2023-01-19T16:45:09.077Z,5.03
2023-01-19T16:47:35.457Z,5.04
2023-01-19T16:50:01.845Z,4.98
2023-01-19T16:52:28.248Z,4.98
2023-01-19T16:54:54.713Z,4.96
2023-01-19T16:57:21.272Z,4.94
2023-01-19T16:59:47.699Z,4.95
2023-01-19T17:02:14.131Z,4.93
2023-01-19T17:04:40.614Z,4.89
2023-01-19T17:07:07.081Z,4.89
2023-01-19T17:09:33.975Z,4.86
2023-01-19T17:12:00.410Z,4.86
2023-01-19T17:14:26.829Z,4.87
2023-01-19T17:16:53.235Z,4.83
2023-01-19T17:19:20.405Z,4.77
2023-01-19T17:21:48.718Z,4.76
2023-01-19T17:24:15.268Z,4.48
2023-01-19T17:26:42.138Z,4.60
2023-01-19T17:29:09.712Z,4.68
2023-01-19T17:31:36.278Z,4.69
2023-01-19T17:34:03.124Z,4.74
2023-01-19T17:36:30.238Z,4.77
2023-01-19T17:38:57.704Z,4.80
2023-01-19T17:41:28.529Z,4.87
2023-01-19T17:43:55.489Z,4.90
2023-01-19T17:46:23.833Z,4.92
2023-01-19T17:48:50.977Z,4.91
2023-01-19T17:51:17.358Z,4.92
2023-01-19T17:53:43.803Z,4.95
2023-01-19T17:56:11.484Z,4.96
2023-01-19T17:58:38.477Z,4.96
2023-01-19T18:01:12.111Z,4.95
2023-01-19T18:03:38.695Z,4.93
2023-01-19T18:06:05.511Z,4.92
2023-01-19T18:08:32.543Z,4.90
2023-01-19T18:11:05.033Z,4.87
2023-01-19T18:13:31.456Z,4.88
2023-01-19T18:15:58.968Z,4.85
2023-01-19T18:18:25.483Z,4.82
2023-01-19T18:20:51.902Z,4.83
2023-01-19T18:23:18.322Z,4.83
2023-01-19T18:25:45.099Z,4.80
2023-01-19T18:28:11.507Z,4.75
2023-01-19T18:30:38.057Z,4.73
2023-01-19T18:33:04.589Z,4.73
2023-01-19T18:35:31.024Z,4.72
2023-01-19T18:37:58.488Z,4.70
2023-01-19T18:40:26.327Z,4.65
2023-01-19T18:42:52.760Z,4.64
2023-01-19T18:45:19.162Z,4.64
2023-01-19T18:47:45.600Z,4.60
2023-01-19T18:50:14.299Z,4.56
2023-01-19T18:52:41.196Z,4.56
2023-01-19T18:55:08.092Z,4.54
2023-01-19T18:57:34.959Z,4.49
2023-01-19T19:00:01.527Z,4.50
2023-01-19T19:02:28.015Z,4.50
2023-01-19T19:04:54.366Z,4.47
2023-01-19T19:07:20.757Z,4.44
2023-01-19T19:09:47.141Z,4.45
2023-01-19T19:12:13.598Z,4.43
2023-01-19T19:14:40.033Z,4.41
2023-01-19T19:17:06.433Z,4.38
2023-01-19T19:19:32.916Z,4.37
2023-01-19T19:21:59.350Z,4.37
2023-01-19T19:24:25.840Z,4.31
2023-01-19T19:26:52.232Z,4.29
2023-01-19T19:29:18.810Z,4.29
2023-01-19T19:31:46.204Z,4.25
2023-01-19T19:34:12.632Z,4.24
2023-01-19T19:36:39.510Z,4.24
2023-01-19T19:39:06.222Z,4.22
2023-01-19T19:41:32.807Z,4.19
2023-01-19T19:43:59.309Z,4.19
2023-01-19T19:46:26.751Z,4.17
2023-01-19T19:48:53.559Z,4.14
2023-01-19T19:51:29.141Z,4.11
2023-01-19T19:53:56.791Z,4.07
2023-01-19T19:56:24.189Z,4.06
2023-01-19T19:58:52.033Z,4.04
2023-01-19T20:01:20.163Z,4.02
2023-01-19T20:03:46.921Z,4.02
2023-01-19T20:06:20.150Z,4.00
2023-01-19T20:08:49.051Z,3.98
2023-01-19T20:11:16.809Z,3.91
2023-01-19T20:13:44.168Z,3.90
2023-01-19T20:16:14.966Z,3.89
2023-01-19T20:18:42.538Z,3.87
2023-01-19T20:21:20.024Z,3.83
2023-01-19T20:23:47.370Z,3.81
2023-01-19T20:26:15.824Z,3.82
2023-01-19T20:28:42.538Z,3.79
2023-01-19T20:31:11.956Z,3.76
2023-01-19T20:33:38.611Z,3.74
2023-01-19T20:36:05.561Z,3.75
2023-01-19T20:38:32.107Z,3.72
2023-01-19T20:40:58.563Z,3.67
2023-01-19T20:43:24.974Z,3.67
2023-01-19T20:45:52.673Z,3.64
2023-01-19T20:48:19.113Z,3.64
2023-01-19T20:50:45.558Z,3.59
2023-01-19T20:53:12.260Z,3.57
2023-01-19T20:55:38.705Z,3.55
2023-01-19T20:58:05.302Z,3.54
2023-01-19T21:00:31.843Z,3.52
2023-01-19T21:02:58.597Z,3.49
2023-01-19T21:05:25.105Z,3.47
2023-01-19T21:07:51.497Z,3.44
2023-01-19T21:10:18.180Z,3.44
2023-01-19T21:12:44.871Z,3.41
2023-01-19T21:15:11.829Z,3.38
2023-01-19T21:17:38.422Z,3.40
2023-01-19T21:20:05.171Z,3.37
2023-01-19T21:22:31.545Z,3.36
2023-01-19T21:24:57.924Z,3.34
2023-01-19T21:27:24.330Z,3.34
2023-01-19T21:29:50.745Z,3.31
2023-01-19T21:32:17.119Z,3.27
2023-01-19T21:34:44.136Z,3.30
2023-01-19T21:37:10.481Z,3.22
2023-01-19T21:39:36.847Z,3.23
2023-01-19T21:42:03.258Z,3.22
2023-01-19T21:44:29.646Z,3.21
2023-01-19T21:46:56.207Z,3.24
2023-01-19T21:49:22.669Z,3.25
2023-01-19T21:51:50.638Z,3.19
2023-01-19T21:54:17.483Z,3.21
2023-01-19T21:56:44.207Z,3.20
2023-01-19T21:59:14.775Z,3.17
2023-01-19T22:01:42.184Z,3.14
2023-01-19T22:04:08.702Z,3.14
2023-01-19T22:06:35.107Z,3.12
2023-01-19T22:09:01.565Z,3.08
2023-01-19T22:11:28.624Z,3.08
2023-01-19T22:13:55.133Z,3.09
2023-01-19T22:16:22.238Z,3.07
2023-01-19T22:18:53.939Z,3.07
2023-01-19T22:21:21.736Z,3.05
2023-01-19T22:23:48.820Z,3.06
2023-01-19T22:26:15.319Z,3.03
2023-01-19T22:28:41.662Z,3.01
2023-01-19T22:31:09.421Z,3.00
2023-01-19T22:33:35.902Z,2.99
2023-01-19T22:36:09.042Z,3.00
2023-01-19T22:38:35.437Z,2.98
2023-01-19T22:41:01.876Z,2.99
2023-01-19T22:43:28.232Z,2.95
2023-01-19T22:45:55.841Z,3.00
2023-01-19T22:48:22.264Z,2.93
2023-01-19T22:50:48.728Z,2.90
2023-01-19T22:53:15.144Z,2.94
2023-01-19T22:55:41.480Z,2.92
2023-01-19T22:58:07.879Z,2.86
2023-01-19T23:00:34.273Z,2.82
2023-01-19T23:03:00.659Z,2.87
2023-01-19T23:05:27.053Z,2.86
2023-01-19T23:07:53.466Z,2.81
2023-01-19T23:10:19.831Z,2.82
2023-01-19T23:12:46.623Z,2.81
2023-01-19T23:15:13.256Z,2.77
2023-01-19T23:17:41.614Z,2.75
2023-01-19T23:20:08.425Z,2.75
2023-01-19T23:22:34.795Z,2.76
2023-01-19T23:25:01.181Z,2.70
2023-01-19T23:27:27.834Z,2.74
2023-01-19T23:29:54.202Z,2.75
2023-01-19T23:32:20.575Z,2.73
2023-01-19T23:34:48.053Z,2.69
2023-01-19T23:37:14.412Z,2.70
2023-01-19T23:39:40.786Z,2.67
2023-01-19T23:42:08.080Z,2.69
2023-01-19T23:44:35.109Z,2.69
2023-01-19T23:47:01.576Z,2.67
2023-01-19T23:49:28.026Z,2.71
2023-01-19T23:51:54.430Z,2.71
2023-01-19T23:54:20.819Z,2.73
2023-01-19T23:56:47.169Z,2.68
2023-01-19T23:59:15.075Z,2.69
